createdAt,value
2023-01-09T00:00:17.859Z,1.42
2023-01-09T00:00:49.885Z,1.63
2023-01-09T00:01:24.764Z,1.35
2023-01-09T00:01:56.142Z,1.95
2023-01-09T00:02:27.533Z,1.33
2023-01-09T00:02:59.020Z,1.05
2023-01-09T00:03:30.497Z,1.30
2023-01-09T00:04:02.824Z,1.33
2023-01-09T00:04:34.721Z,1.25
2023-01-09T00:05:10.118Z,1.45
2023-01-09T00:05:41.560Z,1.77
2023-01-09T00:06:13.672Z,1.85
2023-01-09T00:06:50.165Z,1.50
2023-01-09T00:07:21.740Z,1.50
2023-01-09T00:07:53.269Z,1.25
2023-01-09T00:08:24.723Z,1.73
2023-01-09T00:08:56.816Z,1.60
2023-01-09T00:09:28.414Z,1.50
2023-01-09T00:09:59.813Z,1.23
2023-01-09T00:10:31.266Z,1.33
2023-01-09T00:11:02.819Z,1.60
2023-01-09T00:11:34.444Z,1.30
2023-01-09T00:12:05.999Z,1.48
2023-01-09T00:12:37.615Z,1.23
2023-01-09T00:13:11.915Z,1.38
2023-01-09T00:13:43.363Z,1.27
2023-01-09T00:14:16.477Z,1.88
2023-01-09T00:14:47.839Z,1.80
2023-01-09T00:15:19.252Z,1.40
2023-01-09T00:15:50.647Z,1.33
2023-01-09T00:16:22.093Z,1.50
2023-01-09T00:16:56.809Z,1.65
2023-01-09T00:17:28.340Z,1.45
2023-01-09T00:17:59.718Z,1.17
2023-01-09T00:19:20.153Z,2.05
2023-01-09T00:19:51.544Z,1.30
2023-01-09T00:20:22.929Z,1.20
2023-01-09T00:20:54.367Z,1.65
2023-01-09T00:21:25.800Z,1.40
2023-01-09T00:21:57.197Z,2.53
2023-01-09T00:22:28.569Z,1.10
2023-01-09T00:22:59.961Z,1.90
2023-01-09T00:23:31.426Z,1.30
2023-01-09T00:24:03.290Z,1.20
2023-01-09T00:24:35.254Z,1.60
2023-01-09T00:25:07.069Z,1.60
2023-01-09T00:25:38.628Z,1.47
2023-01-09T00:26:17.766Z,1.02
2023-01-09T00:26:49.429Z,1.27
2023-01-09T00:27:20.756Z,1.90
2023-01-09T00:27:52.071Z,1.17
2023-01-09T00:28:23.568Z,1.33
2023-01-09T00:28:55.189Z,1.27
2023-01-09T00:29:26.684Z,1.27
2023-01-09T00:29:58.372Z,1.17
2023-01-09T00:30:30.318Z,1.65
2023-01-09T00:31:03.990Z,1.50
2023-01-09T00:31:35.463Z,1.50
2023-01-09T00:32:10.043Z,1.33
2023-01-09T00:32:41.387Z,1.67
2023-01-09T00:33:13.064Z,1.92
2023-01-09T00:33:50.239Z,0.95
2023-01-09T00:34:21.799Z,1.45
2023-01-09T00:34:53.897Z,1.63
2023-01-09T00:35:27.563Z,1.52
2023-01-09T00:35:59.022Z,1.58
2023-01-09T00:36:30.708Z,1.00
2023-01-09T00:37:20.475Z,2.10
2023-01-09T00:37:51.921Z,1.95
2023-01-09T00:38:23.309Z,1.70
2023-01-09T00:38:54.805Z,1.77
2023-01-09T00:39:26.261Z,1.17
2023-01-09T00:39:57.715Z,1.23
2023-01-09T00:40:47.753Z,1.75
2023-01-09T00:41:41.822Z,1.40
2023-01-09T00:42:19.107Z,1.10
2023-01-09T00:42:56.323Z,1.53
2023-01-09T00:43:32.753Z,1.70
2023-01-09T00:44:21.866Z,1.70
2023-01-09T00:44:58.995Z,1.60
2023-01-09T00:45:31.294Z,1.98
2023-01-09T00:46:06.645Z,1.55
2023-01-09T00:46:42.574Z,1.42
2023-01-09T00:47:23.051Z,1.75
2023-01-09T00:47:58.039Z,1.75
2023-01-09T00:48:29.914Z,1.55
2023-01-09T00:49:03.299Z,1.80
2023-01-09T00:49:37.068Z,1.90
2023-01-09T00:50:16.834Z,1.48
2023-01-09T00:50:48.265Z,2.63
2023-01-09T00:51:20.172Z,1.63
2023-01-09T00:51:54.384Z,1.50
2023-01-09T00:52:25.769Z,1.40
2023-01-09T00:53:00.751Z,1.55
2023-01-09T00:53:32.834Z,1.65
2023-01-09T00:54:04.973Z,1.65
2023-01-09T00:54:37.263Z,1.70
2023-01-09T00:55:09.443Z,2.08
2023-01-09T00:55:41.343Z,1.35
2023-01-09T00:56:16.662Z,1.92
2023-01-09T00:56:49.879Z,2.00
2023-01-09T00:57:21.465Z,1.42
2023-01-09T00:57:53.006Z,2.05
2023-01-09T00:58:24.763Z,1.65
2023-01-09T00:58:56.362Z,1.70
2023-01-09T00:59:28.400Z,1.42
2023-01-09T01:00:00.054Z,1.33
2023-01-09T01:00:31.946Z,1.70
2023-01-09T01:01:03.605Z,1.75
2023-01-09T01:01:35.185Z,1.67
2023-01-09T01:02:07.018Z,1.80
2023-01-09T01:02:38.651Z,1.73
2023-01-09T01:03:10.608Z,2.08
2023-01-09T01:03:41.976Z,2.78
2023-01-09T01:04:31.730Z,2.42
2023-01-09T01:05:22.477Z,1.98
2023-01-09T01:06:12.539Z,2.00
2023-01-09T01:07:02.322Z,2.10
2023-01-09T01:07:39.400Z,1.92
2023-01-09T01:08:12.766Z,2.00
2023-01-09T01:08:45.796Z,2.30
2023-01-09T01:09:17.121Z,2.22
2023-01-09T01:09:48.491Z,2.22
2023-01-09T01:10:24.319Z,1.77
2023-01-09T01:10:55.764Z,1.75
2023-01-09T01:11:27.193Z,1.80
2023-01-09T01:11:58.601Z,1.73
2023-01-09T01:12:30.074Z,1.83
2023-01-09T01:13:01.468Z,2.05
2023-01-09T01:13:32.799Z,2.05
2023-01-09T01:14:04.194Z,1.75
2023-01-09T01:14:37.460Z,2.33
2023-01-09T01:15:09.500Z,2.38
2023-01-09T01:15:43.056Z,1.80
2023-01-09T01:16:14.608Z,1.95
2023-01-09T01:16:45.980Z,2.22
2023-01-09T01:17:17.357Z,2.00
2023-01-09T01:17:49.028Z,2.50
2023-01-09T01:18:20.483Z,2.30
2023-01-09T01:18:52.186Z,1.88
2023-01-09T01:19:23.565Z,1.58
2023-01-09T01:19:55.283Z,3.35
2023-01-09T01:20:26.807Z,1.85
2023-01-09T01:20:58.639Z,2.53
2023-01-09T01:21:30.014Z,2.20
2023-01-09T01:22:01.706Z,2.33
2023-01-09T01:22:33.261Z,2.23
2023-01-09T01:23:04.581Z,2.30
2023-01-09T01:23:37.102Z,1.85
2023-01-09T01:24:08.518Z,1.98
2023-01-09T01:24:39.878Z,2.05
2023-01-09T01:25:12.780Z,2.00
2023-01-09T01:25:44.164Z,2.17
2023-01-09T01:27:05.543Z,2.15
2023-01-09T01:27:36.944Z,2.42
2023-01-09T01:28:08.716Z,1.90
2023-01-09T01:28:41.267Z,1.60
2023-01-09T01:29:12.693Z,2.22
2023-01-09T01:29:44.207Z,1.77
2023-01-09T01:30:17.172Z,2.05
2023-01-09T01:30:48.523Z,1.65
2023-01-09T01:31:19.914Z,1.63
2023-01-09T01:31:51.995Z,2.38
2023-01-09T01:32:24.074Z,2.95
2023-01-09T01:32:55.403Z,1.70
2023-01-09T01:33:26.988Z,1.93
2023-01-09T01:33:58.413Z,1.80
2023-01-09T01:34:30.365Z,2.08
2023-01-09T01:35:02.022Z,2.78
2023-01-09T01:35:33.482Z,2.95
2023-01-09T01:36:07.579Z,3.30
2023-01-09T01:36:38.970Z,2.15
2023-01-09T01:37:10.490Z,2.60
2023-01-09T01:37:41.937Z,1.80
2023-01-09T01:38:13.324Z,1.52
2023-01-09T01:38:46.735Z,2.27
2023-01-09T01:39:18.058Z,2.28
2023-01-09T01:39:49.522Z,2.35
2023-01-09T01:40:21.073Z,2.30
2023-01-09T01:40:53.903Z,2.63
2023-01-09T01:41:31.833Z,2.55
2023-01-09T01:42:04.726Z,2.85
2023-01-09T01:42:36.402Z,2.58
2023-01-09T01:43:12.108Z,2.40
2023-01-09T01:43:54.351Z,2.25
2023-01-09T01:45:04.221Z,1.63
2023-01-09T01:45:35.902Z,1.73
2023-01-09T01:46:07.277Z,1.90
2023-01-09T01:46:38.666Z,2.20
2023-01-09T01:47:10.218Z,2.25
2023-01-09T01:47:56.696Z,2.30
2023-01-09T01:48:30.588Z,2.50
2023-01-09T01:49:14.403Z,2.20
2023-01-09T01:49:47.038Z,2.78
2023-01-09T01:50:18.378Z,2.88
2023-01-09T01:51:06.769Z,2.07
2023-01-09T01:51:46.829Z,2.40
2023-01-09T01:52:19.434Z,2.28
2023-01-09T01:53:02.937Z,2.13
2023-01-09T01:53:40.730Z,2.90
2023-01-09T01:54:20.929Z,2.33
2023-01-09T01:54:52.840Z,2.45
2023-01-09T01:55:24.865Z,2.03
2023-01-09T01:56:11.645Z,3.15
2023-01-09T01:56:47.050Z,2.60
2023-01-09T01:58:12.871Z,2.47
2023-01-09T01:59:11.536Z,2.40
2023-01-09T01:59:50.198Z,2.47
2023-01-09T02:00:27.425Z,2.20
2023-01-09T02:00:59.052Z,2.15
2023-01-09T02:01:30.924Z,2.20
2023-01-09T02:02:03.864Z,2.45
2023-01-09T02:02:35.393Z,3.15
2023-01-09T02:03:07.722Z,2.70
2023-01-09T02:03:40.409Z,2.60
2023-01-09T02:04:12.513Z,2.28
2023-01-09T02:04:45.171Z,2.83
2023-01-09T02:05:16.745Z,2.97
2023-01-09T02:05:49.205Z,2.83
2023-01-09T02:06:20.576Z,2.70
2023-01-09T02:06:53.922Z,2.95
2023-01-09T02:07:25.657Z,2.92
2023-01-09T02:07:57.078Z,3.40
2023-01-09T02:08:28.526Z,3.03
2023-01-09T02:09:01.738Z,2.83
2023-01-09T02:09:33.143Z,3.45
2023-01-09T02:10:04.930Z,2.55
2023-01-09T02:10:38.883Z,3.40
2023-01-09T02:11:13.785Z,2.90
2023-01-09T02:11:46.195Z,2.90
2023-01-09T02:12:24.918Z,2.60
2023-01-09T02:12:56.271Z,3.55
2023-01-09T02:13:28.394Z,2.78
2023-01-09T02:14:01.382Z,3.13
2023-01-09T02:14:32.848Z,2.87
2023-01-09T02:15:09.533Z,3.10
2023-01-09T02:16:08.443Z,3.42
2023-01-09T02:17:15.486Z,3.17
2023-01-09T02:17:46.807Z,2.97
2023-01-09T02:18:43.907Z,3.00
2023-01-09T02:19:54.170Z,2.92
2023-01-09T02:20:49.263Z,4.10
2023-01-09T02:22:01.776Z,3.70
2023-01-09T02:22:45.069Z,3.47
2023-01-09T02:23:40.132Z,2.73
2023-01-09T02:24:26.476Z,3.20
2023-01-09T02:25:23.006Z,2.92
2023-01-09T02:26:12.961Z,3.10
2023-01-09T02:27:09.261Z,3.15
2023-01-09T02:28:07.880Z,3.60
2023-01-09T02:28:54.186Z,3.38
2023-01-09T02:29:40.824Z,3.88
2023-01-09T02:30:37.661Z,3.05
2023-01-09T02:31:30.652Z,3.60
2023-01-09T02:32:19.035Z,3.30
2023-01-09T02:32:53.297Z,3.08
2023-01-09T02:33:38.013Z,3.22
2023-01-09T02:34:18.669Z,4.18
2023-01-09T02:35:15.266Z,3.65
2023-01-09T02:36:12.880Z,2.80
2023-01-09T02:36:55.246Z,3.47
2023-01-09T02:37:57.649Z,4.20
2023-01-09T02:38:59.824Z,3.55
2023-01-09T02:39:36.728Z,3.40
2023-01-09T02:40:33.137Z,3.70
2023-01-09T02:41:12.860Z,4.15
2023-01-09T02:41:53.369Z,3.50
2023-01-09T02:42:26.941Z,3.95
2023-01-09T02:43:00.361Z,3.50
2023-01-09T02:43:32.796Z,3.90
2023-01-09T02:44:16.669Z,4.45
2023-01-09T02:44:48.127Z,4.25
2023-01-09T02:45:19.483Z,4.13
2023-01-09T02:45:50.881Z,3.97
2023-01-09T02:46:22.965Z,3.20
2023-01-09T02:47:29.269Z,3.38
2023-01-09T02:48:00.671Z,4.30
2023-01-09T02:48:32.196Z,3.80
2023-01-09T02:49:03.926Z,3.70
2023-01-09T02:49:38.219Z,3.70
2023-01-09T02:50:14.359Z,3.85
2023-01-09T02:51:21.735Z,3.35
2023-01-09T02:51:59.797Z,3.92
2023-01-09T02:52:51.945Z,3.15
2023-01-09T02:53:46.346Z,3.57
2023-01-09T02:54:41.007Z,4.22
2023-01-09T02:55:34.844Z,4.20
2023-01-09T02:56:30.878Z,3.88
2023-01-09T02:57:11.299Z,3.78
2023-01-09T02:57:45.142Z,4.00
2023-01-09T02:58:57.989Z,3.30
2023-01-09T02:59:56.005Z,4.03
2023-01-09T03:00:52.511Z,3.40
2023-01-09T03:01:46.310Z,3.50
2023-01-09T03:02:41.973Z,3.80
2023-01-09T03:03:45.281Z,3.55
2023-01-09T03:04:35.788Z,3.55
2023-01-09T03:05:19.251Z,3.75
2023-01-09T03:06:20.727Z,3.83
2023-01-09T03:07:13.287Z,3.13
2023-01-09T03:07:56.229Z,3.67
2023-01-09T03:09:38.660Z,3.53
2023-01-09T03:10:18.801Z,4.07
2023-01-09T03:10:57.075Z,3.60
2023-01-09T03:11:36.382Z,4.00
2023-01-09T03:12:14.376Z,4.57
2023-01-09T03:12:48.512Z,3.92
2023-01-09T03:13:23.954Z,4.40
2023-01-09T03:13:57.608Z,3.45
2023-01-09T03:14:38.321Z,3.60
2023-01-09T03:15:13.524Z,3.83
2023-01-09T03:15:47.149Z,3.55
2023-01-09T03:16:29.853Z,3.28
2023-01-09T03:17:06.184Z,3.57
2023-01-09T03:17:40.839Z,4.10
2023-01-09T03:18:14.225Z,4.25
2023-01-09T03:18:49.017Z,4.05
2023-01-09T03:19:24.119Z,4.28
2023-01-09T03:19:57.515Z,3.72
2023-01-09T03:20:31.197Z,3.95
2023-01-09T03:21:04.676Z,5.10
2023-01-09T03:21:36.680Z,4.18
2023-01-09T03:22:08.722Z,3.83
2023-01-09T03:22:45.475Z,4.13
2023-01-09T03:23:17.235Z,3.72
2023-01-09T03:23:52.452Z,4.07
2023-01-09T03:24:23.936Z,3.90
2023-01-09T03:24:55.362Z,4.05
2023-01-09T03:25:29.432Z,4.05
2023-01-09T03:26:00.804Z,3.67
2023-01-09T03:26:32.298Z,4.03
2023-01-09T03:27:03.969Z,4.65
2023-01-09T03:27:35.393Z,3.35
2023-01-09T03:28:09.441Z,3.53
2023-01-09T03:28:41.712Z,4.63
2023-01-09T03:30:01.761Z,4.20
2023-01-09T03:30:35.092Z,4.80
2023-01-09T03:31:06.487Z,3.33
2023-01-09T03:31:37.982Z,4.00
2023-01-09T03:32:09.561Z,4.18
2023-01-09T03:32:40.973Z,3.72
2023-01-09T03:33:12.304Z,4.07
2023-01-09T03:33:44.150Z,3.50
2023-01-09T03:34:15.550Z,3.20
2023-01-09T03:34:46.900Z,4.15
2023-01-09T03:35:18.337Z,4.00
2023-01-09T03:35:49.676Z,3.60
2023-01-09T03:36:22.071Z,3.95
2023-01-09T03:36:53.517Z,4.32
2023-01-09T03:37:24.914Z,3.58
2023-01-09T03:37:56.386Z,4.28
2023-01-09T03:38:27.827Z,4.07
2023-01-09T03:38:59.258Z,4.37
2023-01-09T03:39:32.082Z,3.90
2023-01-09T03:40:03.733Z,3.63
2023-01-09T03:40:35.124Z,3.80
2023-01-09T03:41:07.194Z,4.13
2023-01-09T03:41:38.571Z,3.95
2023-01-09T03:42:09.963Z,4.65
2023-01-09T03:42:41.434Z,4.18
2023-01-09T03:43:31.405Z,4.13
2023-01-09T03:44:02.771Z,3.80
2023-01-09T03:44:34.152Z,3.77
2023-01-09T03:45:06.381Z,3.70
2023-01-09T03:45:38.231Z,4.03
2023-01-09T03:46:09.675Z,3.78
2023-01-09T03:46:41.301Z,4.47
2023-01-09T03:47:12.684Z,3.55
2023-01-09T03:47:44.149Z,4.00
2023-01-09T03:48:15.529Z,4.35
2023-01-09T03:48:47.742Z,3.78
2023-01-09T03:49:19.277Z,3.95
2023-01-09T03:49:50.714Z,3.87
2023-01-09T03:50:22.070Z,3.83
2023-01-09T03:50:55.290Z,4.35
2023-01-09T03:51:26.636Z,4.32
2023-01-09T03:51:58.074Z,3.20
2023-01-09T03:52:29.429Z,2.95
2023-01-09T03:53:00.764Z,3.03
2023-01-09T03:53:32.118Z,3.55
2023-01-09T03:54:03.670Z,3.70
2023-01-09T03:54:35.048Z,3.40
2023-01-09T03:55:06.812Z,3.87
2023-01-09T03:55:38.184Z,3.10
2023-01-09T03:56:09.587Z,3.30
2023-01-09T03:56:40.963Z,3.15
2023-01-09T03:57:12.507Z,3.50
2023-01-09T03:57:43.927Z,3.30
2023-01-09T03:58:16.836Z,3.20
2023-01-09T03:58:50.118Z,4.30
2023-01-09T03:59:21.641Z,4.40
2023-01-09T03:59:53.021Z,3.17
2023-01-09T04:00:24.670Z,3.40
2023-01-09T04:01:02.112Z,3.53
2023-01-09T04:01:33.862Z,3.20
2023-01-09T04:02:05.552Z,3.42
2023-01-09T04:02:37.126Z,3.30
2023-01-09T04:03:09.601Z,3.33
2023-01-09T04:03:41.208Z,3.33
2023-01-09T04:04:12.636Z,3.35
2023-01-09T04:04:44.091Z,4.20
2023-01-09T04:05:15.457Z,3.30
2023-01-09T04:05:49.129Z,3.10
2023-01-09T04:06:20.518Z,3.10
2023-01-09T04:06:51.975Z,3.83
2023-01-09T04:07:23.357Z,3.97
2023-01-09T04:07:54.685Z,3.60
2023-01-09T04:08:26.125Z,3.08
2023-01-09T04:08:57.519Z,3.55
2023-01-09T04:09:29.236Z,4.00
2023-01-09T04:10:00.595Z,3.75
2023-01-09T04:10:32.037Z,3.45
2023-01-09T04:11:03.462Z,3.37
2023-01-09T04:11:34.857Z,2.90
2023-01-09T04:12:06.626Z,4.20
2023-01-09T04:12:38.044Z,4.10
2023-01-09T04:13:09.471Z,3.47
2023-01-09T04:13:40.884Z,2.70
2023-01-09T04:14:12.318Z,3.47
2023-01-09T04:14:43.641Z,3.50
2023-01-09T04:15:14.974Z,3.90
2023-01-09T04:15:46.323Z,3.30
2023-01-09T04:16:17.828Z,3.80
2023-01-09T04:16:49.218Z,3.30
2023-01-09T04:17:20.607Z,2.95
2023-01-09T04:17:51.965Z,4.63
2023-01-09T04:18:23.384Z,3.03
2023-01-09T04:18:54.789Z,3.35
2023-01-09T04:19:26.229Z,3.17
2023-01-09T04:19:59.032Z,2.58
2023-01-09T04:20:30.732Z,3.33
2023-01-09T04:21:02.191Z,4.00
2023-01-09T04:21:33.700Z,3.23
2023-01-09T04:22:05.064Z,3.25
2023-01-09T04:22:36.774Z,3.35
2023-01-09T04:23:08.207Z,3.17
2023-01-09T04:23:39.604Z,3.60
2023-01-09T04:24:10.937Z,3.17
2023-01-09T04:24:42.315Z,2.97
2023-01-09T04:25:13.738Z,3.95
2023-01-09T04:25:45.775Z,3.05
2023-01-09T04:26:17.136Z,3.38
2023-01-09T04:26:48.527Z,3.63
2023-01-09T04:27:19.982Z,3.35
2023-01-09T04:27:51.363Z,3.80
2023-01-09T04:28:22.727Z,3.33
2023-01-09T04:28:54.155Z,2.90
2023-01-09T04:29:25.509Z,3.42
2023-01-09T04:29:56.891Z,3.35
2023-01-09T04:30:28.214Z,3.65
2023-01-09T04:30:59.646Z,3.15
2023-01-09T04:31:31.066Z,3.22
2023-01-09T04:32:02.517Z,4.30
2023-01-09T04:32:34.048Z,2.95
2023-01-09T04:33:05.473Z,3.17
2023-01-09T04:33:36.909Z,3.33
2023-01-09T04:34:08.343Z,2.92
2023-01-09T04:34:39.702Z,3.38
2023-01-09T04:35:11.188Z,2.97
2023-01-09T04:35:42.502Z,4.15
2023-01-09T04:36:14.060Z,3.15
2023-01-09T04:36:45.429Z,2.70
2023-01-09T04:37:16.814Z,2.80
2023-01-09T04:37:48.267Z,3.30
2023-01-09T04:38:19.969Z,3.20
2023-01-09T04:38:51.312Z,3.40
2023-01-09T04:39:22.842Z,3.10
2023-01-09T04:39:56.327Z,2.72
2023-01-09T04:40:27.885Z,3.40
2023-01-09T04:40:59.232Z,3.00
2023-01-09T04:41:49.187Z,2.75
2023-01-09T04:42:20.556Z,3.03
2023-01-09T04:42:52.056Z,3.30
2023-01-09T04:43:23.379Z,3.00
2023-01-09T04:43:54.758Z,2.63
2023-01-09T04:44:26.541Z,2.60
2023-01-09T04:44:57.876Z,3.35
2023-01-09T04:45:29.284Z,3.15
2023-01-09T04:46:00.832Z,3.10
2023-01-09T04:46:32.282Z,3.17
2023-01-09T04:47:04.056Z,3.35
2023-01-09T04:47:35.664Z,3.20
2023-01-09T04:48:07.782Z,2.93
2023-01-09T04:48:39.156Z,3.05
2023-01-09T04:49:10.733Z,3.22
2023-01-09T04:49:42.248Z,3.10
2023-01-09T04:50:13.715Z,3.10
2023-01-09T04:50:45.145Z,3.25
2023-01-09T04:51:16.550Z,3.13
2023-01-09T04:51:48.270Z,2.42
2023-01-09T04:52:19.911Z,2.70
2023-01-09T04:52:51.363Z,3.15
2023-01-09T04:53:22.714Z,3.67
2023-01-09T04:53:54.125Z,2.90
2023-01-09T04:54:25.515Z,2.80
2023-01-09T04:54:56.843Z,3.97
2023-01-09T04:55:28.403Z,3.22
2023-01-09T04:55:59.743Z,2.92
2023-01-09T04:57:20.388Z,2.47
2023-01-09T04:57:51.864Z,3.75
2023-01-09T04:58:23.200Z,2.40
2023-01-09T04:58:54.669Z,2.67
2023-01-09T04:59:26.025Z,2.28
2023-01-09T04:59:57.376Z,2.67
2023-01-09T05:00:28.801Z,2.35
2023-01-09T05:01:00.449Z,2.78
2023-01-09T05:01:32.179Z,2.50
2023-01-09T05:02:03.981Z,3.70
2023-01-09T05:02:36.845Z,3.17
2023-01-09T05:03:08.243Z,2.45
2023-01-09T05:03:39.617Z,2.05
2023-01-09T05:04:11.301Z,2.47
2023-01-09T05:04:42.713Z,2.50
2023-01-09T05:05:14.057Z,2.65
2023-01-09T05:05:45.455Z,2.50
2023-01-09T05:06:16.872Z,3.20
2023-01-09T05:06:48.309Z,2.15
2023-01-09T05:07:19.693Z,2.40
2023-01-09T05:07:51.265Z,3.00
2023-01-09T05:08:22.589Z,2.40
2023-01-09T05:08:54.117Z,2.50
2023-01-09T05:09:25.532Z,2.20
2023-01-09T05:09:56.908Z,1.90
2023-01-09T05:10:28.321Z,2.83
2023-01-09T05:11:00.510Z,2.88
2023-01-09T05:11:32.023Z,2.13
2023-01-09T05:12:03.572Z,2.70
2023-01-09T05:12:36.170Z,2.88
2023-01-09T05:13:07.558Z,2.88
2023-01-09T05:13:38.926Z,2.20
2023-01-09T05:14:10.268Z,2.38
2023-01-09T05:14:41.634Z,2.00
2023-01-09T05:15:13.069Z,2.78
2023-01-09T05:15:44.463Z,2.35
2023-01-09T05:16:15.939Z,3.05
2023-01-09T05:17:36.334Z,3.15
2023-01-09T05:18:07.784Z,2.53
2023-01-09T05:18:39.320Z,2.47
2023-01-09T05:19:10.710Z,2.92
2023-01-09T05:19:42.397Z,2.70
2023-01-09T05:20:13.774Z,2.10
2023-01-09T05:20:45.101Z,2.60
2023-01-09T05:21:16.502Z,2.22
2023-01-09T05:21:47.869Z,2.38
2023-01-09T05:22:19.211Z,3.15
2023-01-09T05:22:50.627Z,2.90
2023-01-09T05:23:22.032Z,2.17
2023-01-09T05:23:53.682Z,3.08
2023-01-09T05:24:25.185Z,1.80
2023-01-09T05:24:56.941Z,2.35
2023-01-09T05:25:28.933Z,2.33
2023-01-09T05:26:00.296Z,3.03
2023-01-09T05:26:31.754Z,2.55
2023-01-09T05:27:03.207Z,2.80
2023-01-09T05:27:34.599Z,2.30
2023-01-09T05:28:06.062Z,2.40
2023-01-09T05:28:37.454Z,2.25
2023-01-09T05:29:09.813Z,2.28
2023-01-09T05:29:41.236Z,2.78
2023-01-09T05:30:15.538Z,1.92
2023-01-09T05:30:49.092Z,2.63
2023-01-09T05:31:20.720Z,2.78
2023-01-09T05:31:52.772Z,2.40
2023-01-09T05:32:24.263Z,1.90
2023-01-09T05:32:55.718Z,2.47
2023-01-09T05:33:27.186Z,2.85
2023-01-09T05:34:00.892Z,1.83
2023-01-09T05:34:32.355Z,2.20
2023-01-09T05:35:03.965Z,2.15
2023-01-09T05:35:35.306Z,1.90
2023-01-09T05:36:07.204Z,3.33
2023-01-09T05:36:38.640Z,2.22
2023-01-09T05:37:10.009Z,2.45
2023-01-09T05:37:41.557Z,2.25
2023-01-09T05:38:13.031Z,2.40
2023-01-09T05:38:44.586Z,2.00
2023-01-09T05:39:15.999Z,2.58
2023-01-09T05:39:47.374Z,2.00
2023-01-09T05:40:19.018Z,2.20
2023-01-09T05:40:50.459Z,2.10
2023-01-09T05:41:23.590Z,2.77
2023-01-09T05:41:55.701Z,2.25
2023-01-09T05:42:27.351Z,2.17
2023-01-09T05:42:58.716Z,1.88
2023-01-09T05:43:30.110Z,2.97
2023-01-09T05:44:01.711Z,2.72
2023-01-09T05:44:33.239Z,2.28
2023-01-09T05:45:05.884Z,1.90
2023-01-09T05:45:37.435Z,3.03
2023-01-09T05:46:08.916Z,2.13
2023-01-09T05:46:40.302Z,2.40
2023-01-09T05:47:11.761Z,2.85
2023-01-09T05:47:46.090Z,2.80
2023-01-09T05:48:17.449Z,2.30
2023-01-09T05:48:48.872Z,3.20
2023-01-09T05:49:20.195Z,2.10
2023-01-09T05:49:51.519Z,2.08
2023-01-09T05:50:23.067Z,2.25
2023-01-09T05:50:54.853Z,2.13
2023-01-09T05:51:26.461Z,1.58
2023-01-09T05:51:57.820Z,2.77
2023-01-09T05:52:29.196Z,2.03
2023-01-09T05:53:00.620Z,2.30
2023-01-09T05:53:31.997Z,2.13
2023-01-09T05:54:04.810Z,1.85
2023-01-09T05:54:36.135Z,2.10
2023-01-09T05:55:08.228Z,2.00
2023-01-09T05:55:39.682Z,3.55
2023-01-09T05:56:11.920Z,1.83
2023-01-09T05:56:43.416Z,2.80
2023-01-09T05:57:14.810Z,2.63
2023-01-09T05:57:46.160Z,2.40
2023-01-09T05:58:17.531Z,2.15
2023-01-09T05:58:48.905Z,3.10
2023-01-09T05:59:20.474Z,2.60
2023-01-09T05:59:51.842Z,2.50
2023-01-09T06:00:23.385Z,2.03
2023-01-09T06:00:54.747Z,2.40
2023-01-09T06:01:26.204Z,2.72
2023-01-09T06:01:57.725Z,2.30
2023-01-09T06:02:29.142Z,3.20
2023-01-09T06:03:00.598Z,2.40
2023-01-09T06:03:32.053Z,2.80
2023-01-09T06:04:03.462Z,2.85
2023-01-09T06:04:34.821Z,2.88
2023-01-09T06:05:06.747Z,2.85
2023-01-09T06:05:38.075Z,2.35
2023-01-09T06:06:09.528Z,3.75
2023-01-09T06:06:41.117Z,2.35
2023-01-09T06:07:16.623Z,2.00
2023-01-09T06:07:50.971Z,2.47
2023-01-09T06:08:22.410Z,2.13
2023-01-09T06:08:53.878Z,2.65
2023-01-09T06:09:25.251Z,3.05
2023-01-09T06:09:56.775Z,2.63
2023-01-09T06:10:28.116Z,2.13
2023-01-09T06:10:59.541Z,2.58
2023-01-09T06:11:30.938Z,2.28
2023-01-09T06:12:02.330Z,2.63
2023-01-09T06:12:33.868Z,2.50
2023-01-09T06:13:05.276Z,2.90
2023-01-09T06:13:36.740Z,2.70
2023-01-09T06:14:08.090Z,2.15
2023-01-09T06:14:39.415Z,2.45
2023-01-09T06:15:11.334Z,2.30
2023-01-09T06:15:43.041Z,2.22
2023-01-09T06:16:14.524Z,2.13
2023-01-09T06:16:46.029Z,2.55
2023-01-09T06:17:17.432Z,2.08
2023-01-09T06:17:48.936Z,3.03
2023-01-09T06:18:20.514Z,2.83
2023-01-09T06:18:51.923Z,2.28
2023-01-09T06:19:23.386Z,2.63
2023-01-09T06:19:54.793Z,2.80
2023-01-09T06:20:26.319Z,2.15
2023-01-09T06:20:57.682Z,2.40
2023-01-09T06:21:29.625Z,2.40
2023-01-09T06:22:01.045Z,2.22
2023-01-09T06:22:32.377Z,3.13
2023-01-09T06:23:03.894Z,2.90
2023-01-09T06:23:35.245Z,3.60
2023-01-09T06:24:07.245Z,3.30
2023-01-09T06:24:38.674Z,2.65
2023-01-09T06:25:10.574Z,2.60
2023-01-09T06:25:42.302Z,3.17
2023-01-09T06:26:13.988Z,1.92
2023-01-09T06:26:45.317Z,2.60
2023-01-09T06:27:16.759Z,2.88
2023-01-09T06:27:49.148Z,2.30
2023-01-09T06:28:20.476Z,2.20
2023-01-09T06:28:52.338Z,2.37
2023-01-09T06:29:23.678Z,2.60
2023-01-09T06:29:55.208Z,2.72
2023-01-09T06:30:26.607Z,2.25
2023-01-09T06:30:58.130Z,2.72
2023-01-09T06:31:29.634Z,3.03
2023-01-09T06:32:01.057Z,2.25
2023-01-09T06:32:32.574Z,2.58
2023-01-09T06:33:04.199Z,2.55
2023-01-09T06:33:35.603Z,2.42
2023-01-09T06:34:07.001Z,2.50
2023-01-09T06:34:38.380Z,2.33
2023-01-09T06:35:10.351Z,1.98
2023-01-09T06:35:41.720Z,4.05
2023-01-09T06:36:13.111Z,1.92
2023-01-09T06:36:44.664Z,2.35
2023-01-09T06:37:16.006Z,2.55
2023-01-09T06:37:48.564Z,2.53
2023-01-09T06:38:20.067Z,2.42
2023-01-09T06:38:51.535Z,2.90
2023-01-09T06:39:23.093Z,2.97
2023-01-09T06:39:54.794Z,3.72
2023-01-09T06:40:26.262Z,2.63
2023-01-09T06:40:57.660Z,2.58
2023-01-09T06:41:29.064Z,2.75
2023-01-09T06:42:00.572Z,2.47
2023-01-09T06:42:31.929Z,2.50
2023-01-09T06:43:03.342Z,2.80
2023-01-09T06:43:34.923Z,2.28
2023-01-09T06:44:06.327Z,2.60
2023-01-09T06:44:37.807Z,2.20
2023-01-09T06:45:09.555Z,2.50
2023-01-09T06:45:45.023Z,2.70
2023-01-09T06:46:16.454Z,2.83
2023-01-09T06:46:48.107Z,3.05
2023-01-09T06:47:19.514Z,2.58
2023-01-09T06:47:50.971Z,2.38
2023-01-09T06:48:22.685Z,2.83
2023-01-09T06:49:42.883Z,2.05
2023-01-09T06:50:14.365Z,2.53
2023-01-09T06:50:48.094Z,2.30
2023-01-09T06:51:19.517Z,3.00
2023-01-09T06:51:51.715Z,2.83
2023-01-09T06:52:23.141Z,2.38
2023-01-09T06:52:54.643Z,2.20
2023-01-09T06:53:26.100Z,2.85
2023-01-09T06:53:57.554Z,2.67
2023-01-09T06:54:28.942Z,2.05
2023-01-09T06:55:49.775Z,2.60
2023-01-09T06:56:21.188Z,2.30
2023-01-09T06:56:52.533Z,2.78
2023-01-09T06:57:24.110Z,2.65
2023-01-09T06:57:55.623Z,3.15
2023-01-09T06:58:27.066Z,2.60
2023-01-09T06:58:58.501Z,2.40
2023-01-09T06:59:29.920Z,2.40
2023-01-09T07:00:50.469Z,2.53
2023-01-09T07:01:22.063Z,2.63
2023-01-09T07:01:53.791Z,2.45
2023-01-09T07:02:25.369Z,3.08
2023-01-09T07:02:57.069Z,1.70
2023-01-09T07:03:28.461Z,3.58
2023-01-09T07:04:00.039Z,2.67
2023-01-09T07:04:31.526Z,2.33
2023-01-09T07:05:03.973Z,3.28
2023-01-09T07:05:40.963Z,2.83
2023-01-09T07:06:12.369Z,2.42
2023-01-09T07:06:47.144Z,2.40
2023-01-09T07:07:19.894Z,2.08
2023-01-09T07:07:51.225Z,2.17
2023-01-09T07:08:22.671Z,2.35
2023-01-09T07:08:54.029Z,3.75
2023-01-09T07:09:25.469Z,2.42
2023-01-09T07:09:56.826Z,2.88
2023-01-09T07:10:28.242Z,3.28
2023-01-09T07:10:59.592Z,3.00
2023-01-09T07:11:30.964Z,3.33
2023-01-09T07:12:02.323Z,2.80
2023-01-09T07:12:33.690Z,2.78
2023-01-09T07:13:05.094Z,2.45
2023-01-09T07:13:38.245Z,2.83
2023-01-09T07:14:09.651Z,2.95
2023-01-09T07:14:41.352Z,2.10
2023-01-09T07:15:12.692Z,2.08
2023-01-09T07:15:44.145Z,3.17
2023-01-09T07:16:15.726Z,2.40
2023-01-09T07:16:47.297Z,2.65
2023-01-09T07:17:18.685Z,2.23
2023-01-09T07:17:53.439Z,2.30
2023-01-09T07:18:25.051Z,1.92
2023-01-09T07:18:56.463Z,2.35
2023-01-09T07:19:27.800Z,3.40
2023-01-09T07:20:00.148Z,2.25
2023-01-09T07:20:31.521Z,2.30
2023-01-09T07:21:03.043Z,2.42
2023-01-09T07:21:34.420Z,2.33
2023-01-09T07:22:05.823Z,2.35
2023-01-09T07:22:37.258Z,2.27
2023-01-09T07:23:12.839Z,3.03
2023-01-09T07:23:44.372Z,2.25
2023-01-09T07:24:15.809Z,2.95
2023-01-09T07:24:47.549Z,2.13
2023-01-09T07:25:18.921Z,2.70
2023-01-09T07:25:51.745Z,2.25
2023-01-09T07:26:23.205Z,2.00
2023-01-09T07:26:54.684Z,2.78
2023-01-09T07:27:26.156Z,3.40
2023-01-09T07:27:57.673Z,2.47
2023-01-09T07:28:29.111Z,2.00
2023-01-09T07:29:00.535Z,2.38
2023-01-09T07:29:32.038Z,2.85
2023-01-09T07:30:04.917Z,3.28
2023-01-09T07:30:36.369Z,2.28
2023-01-09T07:31:08.061Z,2.60
2023-01-09T07:31:39.559Z,2.63
2023-01-09T07:32:11.028Z,3.08
2023-01-09T07:32:42.477Z,2.78
2023-01-09T07:33:13.818Z,3.53
2023-01-09T07:33:45.167Z,3.28
2023-01-09T07:34:16.588Z,2.72
2023-01-09T07:34:49.118Z,3.28
2023-01-09T07:35:20.481Z,2.60
2023-01-09T07:35:51.802Z,2.22
2023-01-09T07:36:23.187Z,2.95
2023-01-09T07:36:54.662Z,3.35
2023-01-09T07:37:26.101Z,2.67
2023-01-09T07:37:57.551Z,2.40
2023-01-09T07:38:28.893Z,2.73
2023-01-09T07:39:00.254Z,2.75